AAL200 KSFO-KLAX
Flight info
| Callsign | AAL200 |
|---|---|
| Flight time | 1h 6m |
| Altitude | 33000 |
| Route | WESLA5 SUSEY EBAYE BURGL IRNMN2 |
| Aircraft | A21N/M-SDE2E3FGHIRWXY/LB1 |
Departure
| Time | 2026-04-23 17:35 |
|---|---|
| Airport | San Francisco International Airport (KSFO) |
Arrival
| Time | 2026-04-23 18:41 |
|---|---|
| Airport | Los Angeles International Airport (KLAX) |
| Time | Latitude | Longitude | Altitude | Speed | Heading |
|---|---|---|---|---|---|
| 2026-04-23 17:23 | 37.61380 | -122.38965 | 23 ft | 0 kts | 118° |
| 2026-04-23 17:23 | 37.61387 | -122.38984 | 23 ft | 4 kts | 99° |
| 2026-04-23 17:24 | 37.61385 | -122.39016 | 23 ft | 4 kts | 70° |
| 2026-04-23 17:24 | 37.61375 | -122.39048 | 26 ft | 4 kts | 70° |
| 2026-04-23 17:24 | 37.61344 | -122.39098 | 23 ft | 4 kts | 29° |
| 2026-04-23 17:25 | 37.61297 | -122.39130 | 25 ft | 4 kts | 27° |
| 2026-04-23 17:25 | 37.61273 | -122.39146 | 23 ft | 4 kts | 27° |
| 2026-04-23 17:26 | 37.61225 | -122.39177 | 24 ft | 4 kts | 30° |
| 2026-04-23 17:26 | 37.61221 | -122.39176 | 28 ft | 4 kts | 39° |
| 2026-04-23 17:27 | 37.61176 | -122.39197 | 27 ft | 4 kts | 352° |
| 2026-04-23 17:27 | 37.61150 | -122.39189 | 25 ft | 4 kts | 339° |
| 2026-04-23 17:27 | 37.61126 | -122.39174 | 26 ft | 4 kts | 323° |
| 2026-04-23 17:27 | 37.61106 | -122.39151 | 26 ft | 4 kts | 308° |
| 2026-04-23 17:28 | 37.61090 | -122.39124 | 24 ft | 4 kts | 310° |
| 2026-04-23 17:28 | 37.61079 | -122.39106 | 27 ft | 4 kts | 309° |
| 2026-04-23 17:28 | 37.61061 | -122.39080 | 23 ft | 4 kts | 309° |
| 2026-04-23 17:28 | 37.61044 | -122.39053 | 24 ft | 4 kts | 309° |
| 2026-04-23 17:29 | 37.61027 | -122.39027 | 23 ft | 4 kts | 309° |
| 2026-04-23 17:29 | 37.61011 | -122.39000 | 26 ft | 4 kts | 296° |
| 2026-04-23 17:29 | 37.60999 | -122.38964 | 27 ft | 0 kts | 295° |
| 2026-04-23 17:32 | 37.61003 | -122.38968 | 27 ft | 4 kts | 328° |
| 2026-04-23 17:32 | 37.61045 | -122.38959 | 28 ft | 8 kts | 50° |
| 2026-04-23 17:32 | 37.61027 | -122.38872 | 23 ft | 16 kts | 128° |
| 2026-04-23 17:33 | 37.60946 | -122.38709 | 25 ft | 28 kts | 118° |
| 2026-04-23 17:33 | 37.60880 | -122.38497 | 23 ft | 20 kts | 94° |
| 2026-04-23 17:33 | 37.60847 | -122.38389 | 23 ft | 4 kts | 119° |
| 2026-04-23 17:33 | 37.60821 | -122.38332 | 25 ft | 8 kts | 119° |
| 2026-04-23 17:34 | 37.60838 | -122.38256 | 24 ft | 13 kts | 34° |
| 2026-04-23 17:34 | 37.60963 | -122.38177 | 23 ft | 26 kts | 28° |
| 2026-04-23 17:34 | 37.62066 | -122.37443 | 28 ft | 160 kts | 30° |
| 2026-04-23 17:35 | 37.63128 | -122.36721 | 422 ft | 185 kts | 30° |
| 2026-04-23 17:35 | 37.65157 | -122.36280 | 1807 ft | 180 kts | 333° |
| 2026-04-23 17:35 | 37.66411 | -122.37883 | 2395 ft | 214 kts | 304° |
| 2026-04-23 17:36 | 37.66894 | -122.39741 | 2815 ft | 233 kts | 275° |
| 2026-04-23 17:36 | 37.66889 | -122.41811 | 3556 ft | 238 kts | 268° |
| 2026-04-23 17:36 | 37.66763 | -122.43879 | 4396 ft | 241 kts | 266° |
| 2026-04-23 17:36 | 37.66602 | -122.45997 | 5254 ft | 244 kts | 265° |
| 2026-04-23 17:37 | 37.66393 | -122.48140 | 6055 ft | 248 kts | 259° |
| 2026-04-23 17:37 | 37.65682 | -122.50188 | 6571 ft | 267 kts | 230° |
| 2026-04-23 17:37 | 37.62157 | -122.51584 | 7813 ft | 286 kts | 169° |
| 2026-04-23 17:38 | 37.60200 | -122.51011 | 8577 ft | 291 kts | 165° |
| 2026-04-23 17:38 | 37.58230 | -122.50347 | 9341 ft | 296 kts | 165° |
| 2026-04-23 17:38 | 37.56222 | -122.49688 | 10103 ft | 300 kts | 165° |
| 2026-04-23 17:38 | 37.54860 | -122.49256 | 10387 ft | 312 kts | 166° |
| 2026-04-23 17:39 | 37.52677 | -122.48583 | 10665 ft | 332 kts | 166° |
| 2026-04-23 17:39 | 37.50366 | -122.47886 | 10956 ft | 351 kts | 166° |
| 2026-04-23 17:39 | 37.47939 | -122.47163 | 11400 ft | 364 kts | 167° |
| 2026-04-23 17:39 | 37.45456 | -122.46428 | 12059 ft | 369 kts | 166° |
| 2026-04-23 17:40 | 37.42944 | -122.45687 | 12791 ft | 372 kts | 166° |
| 2026-04-23 17:40 | 37.40408 | -122.44946 | 13492 ft | 376 kts | 166° |
| 2026-04-23 17:40 | 37.37847 | -122.44202 | 14162 ft | 379 kts | 166° |
| 2026-04-23 17:40 | 37.35264 | -122.43454 | 14746 ft | 384 kts | 167° |
| 2026-04-23 17:41 | 37.32652 | -122.42699 | 15357 ft | 387 kts | 167° |
| 2026-04-23 17:41 | 37.27363 | -122.41164 | 16589 ft | 393 kts | 167° |
| 2026-04-23 17:41 | 37.24689 | -122.40387 | 17219 ft | 397 kts | 166° |
| 2026-04-23 17:42 | 37.19369 | -122.38346 | 18327 ft | 406 kts | 152° |
| 2026-04-23 17:42 | 37.17046 | -122.36321 | 18768 ft | 410 kts | 136° |
| 2026-04-23 17:42 | 37.15083 | -122.33722 | 19308 ft | 411 kts | 129° |
| 2026-04-23 17:43 | 37.13331 | -122.30881 | 19811 ft | 414 kts | 125° |
| 2026-04-23 17:43 | 37.11684 | -122.27903 | 20220 ft | 419 kts | 123° |
| 2026-04-23 17:43 | 37.10064 | -122.24842 | 20635 ft | 423 kts | 123° |
| 2026-04-23 17:43 | 37.08435 | -122.21748 | 21050 ft | 428 kts | 123° |
| 2026-04-23 17:44 | 37.06773 | -122.18631 | 21432 ft | 433 kts | 124° |
| 2026-04-23 17:44 | 37.05071 | -122.15497 | 21833 ft | 437 kts | 125° |
| 2026-04-23 17:44 | 37.01577 | -122.09190 | 22663 ft | 445 kts | 126° |
| 2026-04-23 17:45 | 36.99793 | -122.06005 | 23036 ft | 449 kts | 126° |
| 2026-04-23 17:45 | 36.96167 | -121.99541 | 23780 ft | 458 kts | 126° |
| 2026-04-23 17:45 | 36.94332 | -121.96269 | 24108 ft | 461 kts | 127° |
| 2026-04-23 17:46 | 36.90624 | -121.89662 | 24812 ft | 467 kts | 127° |
| 2026-04-23 17:46 | 36.88752 | -121.86331 | 25138 ft | 470 kts | 127° |
| 2026-04-23 17:46 | 36.86868 | -121.82981 | 25455 ft | 473 kts | 127° |
| 2026-04-23 17:47 | 36.84972 | -121.79615 | 25772 ft | 475 kts | 127° |
| 2026-04-23 17:47 | 36.83059 | -121.76223 | 25997 ft | 480 kts | 127° |
| 2026-04-23 17:47 | 36.79200 | -121.69385 | 26603 ft | 484 kts | 128° |
| 2026-04-23 17:48 | 36.77255 | -121.65944 | 26874 ft | 486 kts | 128° |
| 2026-04-23 17:48 | 36.75302 | -121.62493 | 27137 ft | 488 kts | 128° |
| 2026-04-23 17:48 | 36.73337 | -121.59025 | 27390 ft | 491 kts | 128° |
| 2026-04-23 17:48 | 36.71363 | -121.55545 | 27640 ft | 493 kts | 128° |
| 2026-04-23 17:49 | 36.69380 | -121.52051 | 27888 ft | 495 kts | 128° |
| 2026-04-23 17:49 | 36.67386 | -121.48536 | 28083 ft | 498 kts | 128° |
| 2026-04-23 17:49 | 36.65383 | -121.45014 | 28380 ft | 498 kts | 128° |
| 2026-04-23 17:49 | 36.63383 | -121.41500 | 28743 ft | 497 kts | 128° |
| 2026-04-23 17:50 | 36.61383 | -121.37991 | 29116 ft | 496 kts | 129° |
| 2026-04-23 17:50 | 36.57388 | -121.30984 | 29829 ft | 496 kts | 129° |
| 2026-04-23 17:50 | 36.55388 | -121.27488 | 30177 ft | 496 kts | 129° |
| 2026-04-23 17:51 | 36.53387 | -121.23997 | 30474 ft | 495 kts | 129° |
| 2026-04-23 17:51 | 36.51384 | -121.20505 | 30686 ft | 497 kts | 129° |
| 2026-04-23 17:51 | 36.47378 | -121.13528 | 31251 ft | 496 kts | 130° |
| 2026-04-23 17:52 | 36.45377 | -121.10045 | 31520 ft | 495 kts | 130° |
| 2026-04-23 17:52 | 36.41171 | -121.03381 | 32007 ft | 492 kts | 135° |
| 2026-04-23 17:52 | 36.38962 | -121.00137 | 32263 ft | 491 kts | 135° |
| 2026-04-23 17:53 | 36.34501 | -120.93729 | 32718 ft | 490 kts | 136° |
| 2026-04-23 17:53 | 36.32256 | -120.90538 | 32926 ft | 491 kts | 136° |
| 2026-04-23 17:53 | 36.30017 | -120.87340 | 33129 ft | 492 kts | 136° |
| 2026-04-23 17:54 | 36.27777 | -120.84136 | 33170 ft | 492 kts | 136° |
| 2026-04-23 17:54 | 36.21071 | -120.74523 | 33169 ft | 491 kts | 136° |
| 2026-04-23 17:55 | 36.14346 | -120.64946 | 33162 ft | 491 kts | 136° |
| 2026-04-23 17:56 | 36.09866 | -120.58566 | 33156 ft | 491 kts | 136° |
| 2026-04-23 17:56 | 36.03114 | -120.49024 | 33158 ft | 491 kts | 136° |
| 2026-04-23 17:57 | 35.98631 | -120.42669 | 33161 ft | 490 kts | 136° |
| 2026-04-23 17:58 | 35.91901 | -120.33151 | 33156 ft | 491 kts | 136° |
| 2026-04-23 17:58 | 35.87293 | -120.26991 | 33161 ft | 483 kts | 145° |
| 2026-04-23 17:59 | 35.81884 | -120.22243 | 33162 ft | 475 kts | 154° |
| 2026-04-23 17:59 | 35.76273 | -120.17955 | 33138 ft | 474 kts | 155° |
| 2026-04-23 18:00 | 35.70628 | -120.13764 | 33167 ft | 474 kts | 155° |
| 2026-04-23 18:00 | 35.65167 | -120.09175 | 33168 ft | 480 kts | 147° |
| 2026-04-23 18:01 | 35.59993 | -120.04055 | 33169 ft | 482 kts | 147° |
| 2026-04-23 18:01 | 35.54814 | -119.98844 | 33167 ft | 481 kts | 146° |
| 2026-04-23 18:02 | 35.49641 | -119.93629 | 33170 ft | 481 kts | 146° |
| 2026-04-23 18:02 | 35.44470 | -119.88419 | 33166 ft | 481 kts | 146° |
| 2026-04-23 18:03 | 35.39294 | -119.83217 | 33158 ft | 481 kts | 146° |
| 2026-04-23 18:03 | 35.34606 | -119.77362 | 33179 ft | 492 kts | 123° |
| 2026-04-23 18:03 | 35.32996 | -119.73677 | 32866 ft | 489 kts | 122° |
| 2026-04-23 18:04 | 35.31245 | -119.70123 | 32186 ft | 485 kts | 128° |
| 2026-04-23 18:04 | 35.29247 | -119.66809 | 31479 ft | 483 kts | 133° |
| 2026-04-23 18:04 | 35.27075 | -119.63674 | 30773 ft | 482 kts | 136° |
| 2026-04-23 18:04 | 35.24812 | -119.60670 | 30154 ft | 478 kts | 138° |
| 2026-04-23 18:05 | 35.22514 | -119.57756 | 29592 ft | 473 kts | 139° |
| 2026-04-23 18:05 | 35.20988 | -119.55863 | 29197 ft | 470 kts | 140° |
| 2026-04-23 18:05 | 35.17906 | -119.52104 | 28372 ft | 466 kts | 140° |
| 2026-04-23 18:05 | 35.15605 | -119.49331 | 27779 ft | 463 kts | 140° |
| 2026-04-23 18:06 | 35.13313 | -119.46580 | 27232 ft | 460 kts | 140° |
| 2026-04-23 18:06 | 35.11038 | -119.43858 | 26700 ft | 456 kts | 140° |
| 2026-04-23 18:06 | 35.08780 | -119.41162 | 26156 ft | 452 kts | 140° |
| 2026-04-23 18:06 | 35.06546 | -119.38500 | 25740 ft | 446 kts | 140° |
| 2026-04-23 18:07 | 35.04336 | -119.35869 | 25222 ft | 443 kts | 140° |
| 2026-04-23 18:07 | 35.02135 | -119.33251 | 24732 ft | 440 kts | 140° |
| 2026-04-23 18:07 | 34.99949 | -119.30655 | 24237 ft | 437 kts | 140° |
| 2026-04-23 18:07 | 34.97778 | -119.28078 | 23753 ft | 434 kts | 140° |
| 2026-04-23 18:08 | 34.96346 | -119.26379 | 23387 ft | 432 kts | 140° |
| 2026-04-23 18:08 | 34.93475 | -119.22975 | 22632 ft | 429 kts | 140° |
| 2026-04-23 18:08 | 34.91340 | -119.20449 | 22062 ft | 426 kts | 140° |
| 2026-04-23 18:08 | 34.89221 | -119.17950 | 21624 ft | 421 kts | 140° |
| 2026-04-23 18:09 | 34.87124 | -119.15462 | 21010 ft | 420 kts | 140° |
| 2026-04-23 18:09 | 34.85028 | -119.12996 | 20548 ft | 417 kts | 140° |
| 2026-04-23 18:09 | 34.82958 | -119.10552 | 20101 ft | 413 kts | 140° |
| 2026-04-23 18:09 | 34.80903 | -119.08122 | 19594 ft | 410 kts | 140° |
| 2026-04-23 18:10 | 34.78862 | -119.05707 | 19091 ft | 408 kts | 140° |
| 2026-04-23 18:10 | 34.76833 | -119.03314 | 18593 ft | 405 kts | 140° |
| 2026-04-23 18:10 | 34.74846 | -119.00974 | 18098 ft | 402 kts | 140° |
| 2026-04-23 18:10 | 34.72841 | -118.98616 | 17576 ft | 399 kts | 140° |
| 2026-04-23 18:11 | 34.70859 | -118.96291 | 17128 ft | 393 kts | 140° |
| 2026-04-23 18:11 | 34.68898 | -118.93994 | 16565 ft | 391 kts | 139° |
| 2026-04-23 18:11 | 34.66945 | -118.91699 | 16062 ft | 388 kts | 139° |
| 2026-04-23 18:11 | 34.65023 | -118.89426 | 15706 ft | 380 kts | 139° |
| 2026-04-23 18:12 | 34.63209 | -118.87297 | 15521 ft | 367 kts | 139° |
| 2026-04-23 18:23 | 34.62803 | -118.86821 | 15474 ft | 365 kts | 139° |
| 2026-04-23 18:24 | 34.59263 | -118.82685 | 15139 ft | 344 kts | 139° |
| 2026-04-23 18:24 | 34.57550 | -118.80691 | 14798 ft | 339 kts | 139° |
| 2026-04-23 18:24 | 34.56427 | -118.79382 | 14529 ft | 338 kts | 139° |
| 2026-04-23 18:25 | 34.53066 | -118.75430 | 13587 ft | 334 kts | 139° |
| 2026-04-23 18:25 | 34.51400 | -118.73504 | 13251 ft | 328 kts | 139° |
| 2026-04-23 18:25 | 34.49759 | -118.71598 | 12851 ft | 326 kts | 138° |
| 2026-04-23 18:25 | 34.48136 | -118.69695 | 12427 ft | 323 kts | 138° |
| 2026-04-23 18:26 | 34.46528 | -118.67816 | 12068 ft | 319 kts | 138° |
| 2026-04-23 18:26 | 34.44933 | -118.65954 | 11980 ft | 318 kts | 138° |
| 2026-04-23 18:26 | 34.43331 | -118.64092 | 11969 ft | 320 kts | 138° |
| 2026-04-23 18:26 | 34.41728 | -118.62228 | 11981 ft | 320 kts | 138° |
| 2026-04-23 18:27 | 34.40120 | -118.60359 | 11974 ft | 320 kts | 138° |
| 2026-04-23 18:27 | 34.38514 | -118.58493 | 11988 ft | 320 kts | 138° |
| 2026-04-23 18:27 | 34.36905 | -118.56623 | 11994 ft | 320 kts | 138° |
| 2026-04-23 18:27 | 34.35298 | -118.54757 | 12001 ft | 320 kts | 138° |
| 2026-04-23 18:28 | 34.33692 | -118.52894 | 12003 ft | 320 kts | 138° |
| 2026-04-23 18:28 | 34.32087 | -118.51030 | 12009 ft | 320 kts | 138° |
| 2026-04-23 18:28 | 34.30480 | -118.49170 | 11929 ft | 320 kts | 139° |
| 2026-04-23 18:28 | 34.28730 | -118.47540 | 11494 ft | 316 kts | 151° |
| 2026-04-23 18:29 | 34.26776 | -118.46397 | 11094 ft | 309 kts | 166° |
| 2026-04-23 18:29 | 34.24698 | -118.45927 | 10675 ft | 303 kts | 178° |
| 2026-04-23 18:29 | 34.22599 | -118.45784 | 10248 ft | 300 kts | 181° |
| 2026-04-23 18:29 | 34.20524 | -118.45733 | 9822 ft | 298 kts | 182° |
| 2026-04-23 18:30 | 34.18490 | -118.45712 | 9402 ft | 294 kts | 182° |
| 2026-04-23 18:30 | 34.16448 | -118.45695 | 8952 ft | 293 kts | 179° |
| 2026-04-23 18:30 | 34.14437 | -118.45300 | 8509 ft | 293 kts | 163° |
| 2026-04-23 18:30 | 34.12636 | -118.44174 | 8063 ft | 293 kts | 140° |
| 2026-04-23 18:31 | 34.11229 | -118.42416 | 7712 ft | 289 kts | 129° |
| 2026-04-23 18:31 | 34.09991 | -118.40525 | 7332 ft | 285 kts | 127° |
| 2026-04-23 18:31 | 34.08798 | -118.38629 | 6949 ft | 282 kts | 126° |
| 2026-04-23 18:31 | 34.07626 | -118.36750 | 6592 ft | 278 kts | 126° |
| 2026-04-23 18:32 | 34.06473 | -118.34905 | 6237 ft | 273 kts | 126° |
| 2026-04-23 18:32 | 34.05333 | -118.33081 | 5823 ft | 272 kts | 126° |
| 2026-04-23 18:32 | 34.04195 | -118.31263 | 5379 ft | 271 kts | 126° |
| 2026-04-23 18:32 | 34.03118 | -118.29394 | 4947 ft | 270 kts | 116° |
| 2026-04-23 18:33 | 34.02468 | -118.27284 | 4494 ft | 268 kts | 106° |
| 2026-04-23 18:33 | 34.01910 | -118.25178 | 4217 ft | 260 kts | 107° |
| 2026-04-23 18:33 | 34.01339 | -118.23124 | 3804 ft | 258 kts | 108° |
| 2026-04-23 18:33 | 34.00762 | -118.21093 | 3551 ft | 250 kts | 108° |
| 2026-04-23 18:34 | 34.00205 | -118.19161 | 3407 ft | 239 kts | 108° |
| 2026-04-23 18:34 | 33.99670 | -118.17304 | 3065 ft | 236 kts | 108° |
| 2026-04-23 18:34 | 33.99129 | -118.15437 | 2646 ft | 237 kts | 109° |
| 2026-04-23 18:34 | 33.98584 | -118.13558 | 2275 ft | 237 kts | 109° |
| 2026-04-23 18:35 | 33.98013 | -118.11722 | 2146 ft | 233 kts | 116° |
| 2026-04-23 18:35 | 33.97100 | -118.10113 | 2182 ft | 234 kts | 138° |
| 2026-04-23 18:35 | 33.95730 | -118.09092 | 2179 ft | 233 kts | 163° |
| 2026-04-23 18:35 | 33.94133 | -118.08890 | 2180 ft | 231 kts | 189° |
| 2026-04-23 18:36 | 33.92630 | -118.09527 | 2184 ft | 230 kts | 214° |
| 2026-04-23 18:36 | 33.91498 | -118.10864 | 2182 ft | 230 kts | 238° |
| 2026-04-23 18:36 | 33.90933 | -118.12660 | 2193 ft | 231 kts | 263° |
| 2026-04-23 18:36 | 33.91050 | -118.14577 | 2190 ft | 232 kts | 287° |
| 2026-04-23 18:37 | 33.91679 | -118.16367 | 2196 ft | 233 kts | 296° |
| 2026-04-23 18:37 | 33.92430 | -118.18104 | 2188 ft | 234 kts | 297° |
| 2026-04-23 18:37 | 33.93194 | -118.19837 | 2187 ft | 234 kts | 297° |
| 2026-04-23 18:37 | 33.93950 | -118.21575 | 2190 ft | 234 kts | 296° |
| 2026-04-23 18:38 | 33.94699 | -118.23315 | 2193 ft | 234 kts | 296° |
| 2026-04-23 18:38 | 33.95420 | -118.25005 | 2256 ft | 215 kts | 296° |
| 2026-04-23 18:38 | 33.96039 | -118.26496 | 2230 ft | 188 kts | 290° |
| 2026-04-23 18:38 | 33.96325 | -118.27999 | 2133 ft | 183 kts | 276° |
| 2026-04-23 18:39 | 33.96300 | -118.29513 | 1893 ft | 176 kts | 263° |
| 2026-04-23 18:39 | 33.96158 | -118.30909 | 1659 ft | 162 kts | 262° |
| 2026-04-23 18:39 | 33.96023 | -118.32233 | 1442 ft | 157 kts | 262° |
| 2026-04-23 18:39 | 33.95897 | -118.33492 | 1229 ft | 145 kts | 262° |
| 2026-04-23 18:40 | 33.95779 | -118.34659 | 1043 ft | 140 kts | 263° |
| 2026-04-23 18:40 | 33.95661 | -118.35819 | 852 ft | 140 kts | 263° |
| 2026-04-23 18:40 | 33.95541 | -118.36981 | 666 ft | 139 kts | 264° |
| 2026-04-23 18:40 | 33.95422 | -118.38140 | 472 ft | 140 kts | 263° |
| 2026-04-23 18:41 | 33.95300 | -118.39291 | 226 ft | 138 kts | 264° |
| 2026-04-23 18:41 | 33.95188 | -118.40430 | 106 ft | 136 kts | 264° |
| 2026-04-23 18:41 | 33.95082 | -118.41455 | 97 ft | 105 kts | 263° |
| 2026-04-23 18:41 | 33.95020 | -118.42052 | 96 ft | 29 kts | 257° |
| 2026-04-23 18:42 | 33.94982 | -118.42131 | 97 ft | 20 kts | 235° |
| 2026-04-23 18:42 | 33.94841 | -118.42280 | 99 ft | 30 kts | 194° |
| 2026-04-23 18:42 | 33.94686 | -118.42239 | 97 ft | 15 kts | 120° |
| 2026-04-23 18:42 | 33.94688 | -118.42160 | 99 ft | 13 kts | 78° |